Cleveland, Ohio
Traffic Map
Current Weather Conditions
Cleveland, Ohio
Clear
Clear
41°
Feels Like: 35°
Wind Chill: 35° Ceiling: Unl
Heat Index: 41° Visibility: 10mi
Dew Point: 26° Wind: 10mph
Humidity: 55% Direction: 160° (SSE)
Pressure: 30.14in Gusts: 0mph
Raw Report DataKBKL 041753Z 16009KT 10SM CLR 05/M03 A3014 RMK AO2 SLP212 T00501033 10050 20011 58033
Traffic Incident Summary
Active as of:
Severity:
Category:
InformationThere was an issue retrieving the traffic information for this location. Please try a different location or try again shortly.
Advertisements
Track Severe Weather on mobile